PWSweather.com
Personal Weather Stations
Station Observations
728536
Kristiansand, FlekkeroyNO 4625

KristiansandFlekkeroyNO 4625

Lat: 58.0860587, Lon: 8.0151742

Elevation: 36

Station Type: Davis Vantage Pro2

http://www.paulen.no

High Low Average
Temperature 67.0°F19.4°C 49.4°F9.7°C 57.5°F14.2°C
Dew Point 55.2°F12.9°C 43.2°F6.2°C 50.4°F10.2°C
Winds 13.8 mph 22.2 kmh Calm Calm 5.0 mph NW8.0 kmh NW
Wind Gusts 19.6 mph31.5 kmh 1.2 mph1.9 kmh 9.0 mph14.5 kmh
Humidity 93% 60% 78%
Pressure 30.27 in1025.1 mb 30.10 in1019.3 mb -
Precipitation 0.00 in0.0 mm - -
Hour Temp Dew Point Humidity Winds Wind Gusts Pressure Precip Precip Rate Daily Precip Total
12:00 AM 49.4°F9.7°C 43.2°F6.2°C 79% 1.2 mph WSW1.9 kmh WSW 3.5 mph5.6 kmh 30.26 in1024.7 mb - 0.00 in0.0 mm 0.00 in0.0 mm
12:10 AM 49.4°F9.7°C 43.5°F6.4°C 80% 1.2 mph NW1.9 kmh NW 3.5 mph5.6 kmh 30.27 in1025.1 mb - 0.00 in0.0 mm 0.00 in0.0 mm
12:20 AM 49.5°F9.7°C 43.6°F6.4°C 80% Calm Calm 1.2 mph1.9 kmh 30.27 in1025.1 mb - 0.00 in0.0 mm 0.00 in0.0 mm
12:30 AM 49.5°F9.7°C 43.9°F6.6°C 81% Calm Calm 1.2 mph1.9 kmh 30.27 in1025.1 mb - 0.00 in0.0 mm 0.00 in0.0 mm
12:40 AM 49.5°F9.7°C 43.9°F6.6°C 81% 2.3 mph WSW3.7 kmh WSW 5.8 mph9.3 kmh 30.27 in1025.1 mb - 0.00 in0.0 mm 0.00 in0.0 mm
12:50 AM 49.6°F9.8°C 44.0°F6.7°C 81% 1.2 mph NW1.9 kmh NW 3.5 mph5.6 kmh 30.26 in1024.7 mb - 0.00 in0.0 mm 0.00 in0.0 mm
01:00 AM 49.6°F9.8°C 44.0°F6.7°C 81% 3.5 mph WNW5.6 kmh WNW 6.9 mph11.1 kmh 30.26 in1024.7 mb - 0.00 in0.0 mm 0.00 in0.0 mm
01:10 AM 49.6°F9.8°C 44.7°F7.1°C 83% 1.2 mph WNW1.9 kmh WNW 4.6 mph7.4 kmh 30.26 in1024.7 mb - 0.00 in0.0 mm 0.00 in0.0 mm
01:20 AM 49.6°F9.8°C 44.7°F7.1°C 83% 1.2 mph WSW1.9 kmh WSW 1.2 mph1.9 kmh 30.26 in1024.7 mb - 0.00 in0.0 mm 0.00 in0.0 mm
01:30 AM 49.8°F9.9°C 45.2°F7.3°C 84% 1.2 mph WSW1.9 kmh WSW 3.5 mph5.6 kmh 30.26 in1024.7 mb - 0.00 in0.0 mm 0.00 in0.0 mm
01:40 AM 50.0°F10.0°C 45.6°F7.6°C 85% 1.2 mph W1.9 kmh W 2.3 mph3.7 kmh 30.25 in1024.4 mb - 0.00 in0.0 mm 0.00 in0.0 mm
01:50 AM 50.1°F10.1°C 46.1°F7.8°C 86% 2.3 mph W3.7 kmh W 3.5 mph5.6 kmh 30.25 in1024.4 mb - 0.00 in0.0 mm 0.00 in0.0 mm
02:00 AM 50.1°F10.1°C 46.4°F8.0°C 87% 2.3 mph WSW3.7 kmh WSW 8.1 mph13.0 kmh 30.25 in1024.4 mb - 0.00 in0.0 mm 0.00 in0.0 mm
02:10 AM 50.1°F10.1°C 46.4°F8.0°C 87% 2.3 mph WNW3.7 kmh WNW 5.8 mph9.3 kmh 30.25 in1024.4 mb - 0.00 in0.0 mm 0.00 in0.0 mm
02:20 AM 50.2°F10.1°C 46.8°F8.2°C 88% 2.3 mph WNW3.7 kmh WNW 3.5 mph5.6 kmh 30.24 in1024.0 mb - 0.00 in0.0 mm 0.00 in0.0 mm
02:30 AM 50.4°F10.2°C 47.3°F8.5°C 89% 3.5 mph W5.6 kmh W 5.8 mph9.3 kmh 30.24 in1024.0 mb - 0.00 in0.0 mm 0.00 in0.0 mm
02:40 AM 50.6°F10.3°C 47.8°F8.8°C 90% 2.3 mph N3.7 kmh N 3.5 mph5.6 kmh 30.24 in1024.0 mb - 0.00 in0.0 mm 0.00 in0.0 mm
02:50 AM 50.7°F10.4°C 47.9°F8.8°C 90% 2.3 mph NW3.7 kmh NW 4.6 mph7.4 kmh 30.24 in1024.0 mb - 0.00 in0.0 mm 0.00 in0.0 mm
03:00 AM 50.8°F10.4°C 48.0°F8.9°C 90% 3.5 mph NW5.6 kmh NW 4.6 mph7.4 kmh 30.23 in1023.7 mb - 0.00 in0.0 mm 0.00 in0.0 mm
03:10 AM 50.7°F10.4°C 47.9°F8.8°C 90% 3.5 mph NNW5.6 kmh NNW 9.2 mph14.8 kmh 30.23 in1023.7 mb - 0.00 in0.0 mm 0.00 in0.0 mm
03:20 AM 50.7°F10.4°C 48.1°F8.9°C 91% 2.3 mph WNW3.7 kmh WNW 5.8 mph9.3 kmh 30.23 in1023.7 mb - 0.00 in0.0 mm 0.00 in0.0 mm
03:30 AM 50.8°F10.4°C 48.3°F9.1°C 91% 3.5 mph WNW5.6 kmh WNW 5.8 mph9.3 kmh 30.23 in1023.7 mb - 0.00 in0.0 mm 0.00 in0.0 mm
03:40 AM 50.9°F10.5°C 48.7°F9.3°C 92% 2.3 mph WSW3.7 kmh WSW 3.5 mph5.6 kmh 30.23 in1023.7 mb - 0.00 in0.0 mm 0.00 in0.0 mm
03:50 AM 51.3°F10.7°C 49.0°F9.4°C 92% 1.2 mph WSW1.9 kmh WSW 3.5 mph5.6 kmh 30.23 in1023.7 mb - 0.00 in0.0 mm 0.00 in0.0 mm
04:00 AM 51.8°F11.0°C 49.8°F9.9°C 93% 3.5 mph WSW5.6 kmh WSW 5.8 mph9.3 kmh 30.22 in1023.4 mb - 0.00 in0.0 mm 0.00 in0.0 mm
04:10 AM 52.4°F11.3°C 50.1°F10.1°C 92% 3.5 mph W5.6 kmh W 3.5 mph5.6 kmh 30.22 in1023.4 mb - 0.00 in0.0 mm 0.00 in0.0 mm
04:20 AM 53.0°F11.7°C 50.8°F10.4°C 92% 4.6 mph WNW7.4 kmh WNW 11.5 mph18.5 kmh 30.21 in1023.0 mb - 0.00 in0.0 mm 0.00 in0.0 mm
04:30 AM 53.8°F12.1°C 50.9°F10.5°C 90% 4.6 mph W7.4 kmh W 11.5 mph18.5 kmh 30.21 in1023.0 mb - 0.00 in0.0 mm 0.00 in0.0 mm
04:40 AM 54.1°F12.3°C 50.9°F10.5°C 89% 4.6 mph W7.4 kmh W 13.8 mph22.2 kmh 30.21 in1023.0 mb - 0.00 in0.0 mm 0.00 in0.0 mm
04:50 AM 54.2°F12.3°C 51.0°F10.6°C 89% 4.6 mph NW7.4 kmh NW 12.7 mph20.4 kmh 30.20 in1022.7 mb - 0.00 in0.0 mm 0.00 in0.0 mm
05:00 AM 54.3°F12.4°C 51.1°F10.6°C 89% 4.6 mph W7.4 kmh W 11.5 mph18.5 kmh 30.20 in1022.7 mb - 0.00 in0.0 mm 0.00 in0.0 mm
05:10 AM 54.4°F12.4°C 50.9°F10.5°C 88% 1.2 mph WNW1.9 kmh WNW 5.8 mph9.3 kmh 30.20 in1022.7 mb - 0.00 in0.0 mm 0.00 in0.0 mm
05:20 AM 54.5°F12.5°C 51.0°F10.6°C 88% 5.8 mph WNW9.3 kmh WNW 10.4 mph16.7 kmh 30.20 in1022.7 mb - 0.00 in0.0 mm 0.00 in0.0 mm
05:30 AM 54.7°F12.6°C 51.2°F10.7°C 88% 4.6 mph NW7.4 kmh NW 8.1 mph13.0 kmh 30.19 in1022.4 mb - 0.00 in0.0 mm 0.00 in0.0 mm
05:40 AM 54.7°F12.6°C 50.9°F10.5°C 87% 2.3 mph NNW3.7 kmh NNW 5.8 mph9.3 kmh 30.19 in1022.4 mb - 0.00 in0.0 mm 0.00 in0.0 mm
05:50 AM 54.6°F12.6°C 50.8°F10.4°C 87% 3.5 mph W5.6 kmh W 8.1 mph13.0 kmh 30.19 in1022.4 mb - 0.00 in0.0 mm 0.00 in0.0 mm
06:00 AM 54.7°F12.6°C 50.9°F10.5°C 87% 3.5 mph WSW5.6 kmh WSW 10.4 mph16.7 kmh 30.20 in1022.7 mb - 0.00 in0.0 mm 0.00 in0.0 mm
06:10 AM 54.8°F12.7°C 50.7°F10.4°C 86% 4.6 mph WSW7.4 kmh WSW 4.6 mph7.4 kmh 30.19 in1022.4 mb - 0.00 in0.0 mm 0.00 in0.0 mm
06:20 AM 54.8°F12.7°C 50.7°F10.4°C 86% 4.6 mph NW7.4 kmh NW 6.9 mph11.1 kmh 30.18 in1022.0 mb - 0.00 in0.0 mm 0.00 in0.0 mm
06:30 AM 54.9°F12.7°C 50.5°F10.3°C 85% 2.3 mph WSW3.7 kmh WSW 8.1 mph13.0 kmh 30.18 in1022.0 mb - 0.00 in0.0 mm 0.00 in0.0 mm
06:40 AM 55.1°F12.8°C 50.7°F10.4°C 85% 3.5 mph NNW5.6 kmh NNW 5.8 mph9.3 kmh 30.18 in1022.0 mb - 0.00 in0.0 mm 0.00 in0.0 mm
06:50 AM 55.3°F12.9°C 50.9°F10.5°C 85% 4.6 mph N7.4 kmh N 10.4 mph16.7 kmh 30.18 in1022.0 mb - 0.00 in0.0 mm 0.00 in0.0 mm
07:00 AM 55.3°F12.9°C 50.9°F10.5°C 85% 4.6 mph NW7.4 kmh NW 8.1 mph13.0 kmh 30.17 in1021.7 mb - 0.00 in0.0 mm 0.00 in0.0 mm
07:10 AM 55.2°F12.9°C 50.8°F10.4°C 85% 5.8 mph W9.3 kmh W 13.8 mph22.2 kmh 30.18 in1022.0 mb - 0.00 in0.0 mm 0.00 in0.0 mm
07:20 AM 55.2°F12.9°C 50.4°F10.2°C 84% 4.6 mph W7.4 kmh W 10.4 mph16.7 kmh 30.18 in1022.0 mb - 0.00 in0.0 mm 0.00 in0.0 mm
07:30 AM 55.0°F12.8°C 50.3°F10.2°C 84% 5.8 mph WNW9.3 kmh WNW 9.2 mph14.8 kmh 30.18 in1022.0 mb - 0.00 in0.0 mm 0.00 in0.0 mm
07:40 AM 55.1°F12.8°C 50.3°F10.2°C 84% 5.8 mph NW9.3 kmh NW 12.7 mph20.4 kmh 30.18 in1022.0 mb - 0.00 in0.0 mm 0.00 in0.0 mm
07:50 AM 55.1°F12.8°C 50.0°F10.0°C 83% 8.1 mph NW13.0 kmh NW 13.8 mph22.2 kmh 30.18 in1022.0 mb - 0.00 in0.0 mm 0.00 in0.0 mm
08:00 AM 55.2°F12.9°C 50.1°F10.1°C 83% 4.6 mph NNW7.4 kmh NNW 12.7 mph20.4 kmh 30.18 in1022.0 mb - 0.00 in0.0 mm 0.00 in0.0 mm
08:10 AM 55.2°F12.9°C 50.1°F10.1°C 83% 6.9 mph N11.1 kmh N 11.5 mph18.5 kmh 30.18 in1022.0 mb - 0.00 in0.0 mm 0.00 in0.0 mm
08:20 AM 55.4°F13.0°C 50.3°F10.2°C 83% 5.8 mph N9.3 kmh N 11.5 mph18.5 kmh 30.18 in1022.0 mb - 0.00 in0.0 mm 0.00 in0.0 mm
08:30 AM 55.5°F13.1°C 50.4°F10.2°C 83% 5.8 mph NNW9.3 kmh NNW 10.4 mph16.7 kmh 30.19 in1022.4 mb - 0.00 in0.0 mm 0.00 in0.0 mm
08:40 AM 55.8°F13.2°C 50.7°F10.4°C 83% 3.5 mph WNW5.6 kmh WNW 5.8 mph9.3 kmh 30.19 in1022.4 mb - 0.00 in0.0 mm 0.00 in0.0 mm
08:50 AM 56.0°F13.3°C 50.6°F10.3°C 82% 5.8 mph N9.3 kmh N 11.5 mph18.5 kmh 30.19 in1022.4 mb - 0.00 in0.0 mm 0.00 in0.0 mm
09:00 AM 56.1°F13.4°C 50.7°F10.4°C 82% 8.1 mph NNW13.0 kmh NNW 11.5 mph18.5 kmh 30.19 in1022.4 mb - 0.00 in0.0 mm 0.00 in0.0 mm
09:10 AM 56.3°F13.5°C 50.9°F10.5°C 82% 3.5 mph W5.6 kmh W 8.1 mph13.0 kmh 30.19 in1022.4 mb - 0.00 in0.0 mm 0.00 in0.0 mm
09:20 AM 56.3°F13.5°C 50.9°F10.5°C 82% 3.5 mph N5.6 kmh N 5.8 mph9.3 kmh 30.19 in1022.4 mb - 0.00 in0.0 mm 0.00 in0.0 mm
09:30 AM 56.4°F13.6°C 50.6°F10.3°C 81% 5.8 mph NW9.3 kmh NW 9.2 mph14.8 kmh 30.19 in1022.4 mb - 0.00 in0.0 mm 0.00 in0.0 mm
09:40 AM 57.0°F13.9°C 51.3°F10.7°C 81% 3.5 mph N5.6 kmh N 6.9 mph11.1 kmh 30.19 in1022.4 mb - 0.00 in0.0 mm 0.00 in0.0 mm
09:50 AM 57.2°F14.0°C 51.1°F10.6°C 80% 3.5 mph N5.6 kmh N 8.1 mph13.0 kmh 30.19 in1022.4 mb - 0.00 in0.0 mm 0.00 in0.0 mm
10:00 AM 57.6°F14.2°C 51.5°F10.8°C 80% 3.5 mph N5.6 kmh N 6.9 mph11.1 kmh 30.18 in1022.0 mb - 0.00 in0.0 mm 0.00 in0.0 mm
10:10 AM 59.2°F15.1°C 52.3°F11.3°C 78% 1.2 mph N1.9 kmh N 5.8 mph9.3 kmh 30.18 in1022.0 mb - 0.00 in0.0 mm 0.00 in0.0 mm
10:20 AM 60.5°F15.8°C 52.2°F11.2°C 74% 5.8 mph N9.3 kmh N 8.1 mph13.0 kmh 30.18 in1022.0 mb - 0.00 in0.0 mm 0.00 in0.0 mm
10:30 AM 61.1°F16.2°C 52.4°F11.3°C 73% 6.9 mph NNW11.1 kmh NNW 10.4 mph16.7 kmh 30.17 in1021.7 mb - 0.00 in0.0 mm 0.00 in0.0 mm
10:40 AM 60.9°F16.1°C 52.9°F11.6°C 75% 3.5 mph N5.6 kmh N 6.9 mph11.1 kmh 30.17 in1021.7 mb - 0.00 in0.0 mm 0.00 in0.0 mm
10:50 AM 61.6°F16.4°C 53.2°F11.8°C 74% 2.3 mph NW3.7 kmh NW 4.6 mph7.4 kmh 30.16 in1021.3 mb - 0.00 in0.0 mm 0.00 in0.0 mm
11:00 AM 63.1°F17.3°C 52.8°F11.6°C 69% 3.5 mph NW5.6 kmh NW 5.8 mph9.3 kmh 30.16 in1021.3 mb - 0.00 in0.0 mm 0.00 in0.0 mm
11:10 AM 64.2°F17.9°C 52.6°F11.4°C 66% 4.6 mph WNW7.4 kmh WNW 11.5 mph18.5 kmh 30.16 in1021.3 mb - 0.00 in0.0 mm 0.00 in0.0 mm
11:20 AM 64.4°F18.0°C 52.4°F11.3°C 65% 5.8 mph NW9.3 kmh NW 11.5 mph18.5 kmh 30.16 in1021.3 mb - 0.00 in0.0 mm 0.00 in0.0 mm
11:30 AM 64.9°F18.3°C 52.0°F11.1°C 63% 5.8 mph WNW9.3 kmh WNW 8.1 mph13.0 kmh 30.15 in1021.0 mb - 0.00 in0.0 mm 0.00 in0.0 mm
11:40 AM 64.8°F18.2°C 52.3°F11.3°C 64% 6.9 mph WNW11.1 kmh WNW 11.5 mph18.5 kmh 30.16 in1021.3 mb - 0.00 in0.0 mm 0.00 in0.0 mm
11:50 AM 64.7°F18.2°C 52.2°F11.2°C 64% 4.6 mph NW7.4 kmh NW 9.2 mph14.8 kmh 30.16 in1021.3 mb - 0.00 in0.0 mm 0.00 in0.0 mm
12:00 PM 65.1°F18.4°C 52.2°F11.2°C 63% 4.6 mph NW7.4 kmh NW 9.2 mph14.8 kmh 30.16 in1021.3 mb - 0.00 in0.0 mm 0.00 in0.0 mm
12:10 PM 66.2°F19.0°C 52.8°F11.6°C 62% 3.5 mph WNW5.6 kmh WNW 10.4 mph16.7 kmh 30.15 in1021.0 mb - 0.00 in0.0 mm 0.00 in0.0 mm
12:20 PM 66.1°F18.9°C 52.3°F11.3°C 61% 4.6 mph NW7.4 kmh NW 11.5 mph18.5 kmh 30.15 in1021.0 mb - 0.00 in0.0 mm 0.00 in0.0 mm
12:30 PM 66.0°F18.9°C 53.0°F11.7°C 63% 3.5 mph NW5.6 kmh NW 4.6 mph7.4 kmh 30.15 in1021.0 mb - 0.00 in0.0 mm 0.00 in0.0 mm
12:40 PM 66.9°F19.4°C 53.4°F11.9°C 62% 4.6 mph W7.4 kmh W 8.1 mph13.0 kmh 30.15 in1021.0 mb - 0.00 in0.0 mm 0.00 in0.0 mm
12:50 PM 67.0°F19.4°C 53.5°F11.9°C 62% 2.3 mph WNW3.7 kmh WNW 3.5 mph5.6 kmh 30.14 in1020.7 mb - 0.00 in0.0 mm 0.00 in0.0 mm
01:00 PM 66.7°F19.3°C 54.1°F12.3°C 64% 8.1 mph NNW13.0 kmh NNW 12.7 mph20.4 kmh 30.14 in1020.7 mb - 0.00 in0.0 mm 0.00 in0.0 mm
01:10 PM 64.8°F18.2°C 54.0°F12.2°C 68% 4.6 mph N7.4 kmh N 9.2 mph14.8 kmh 30.14 in1020.7 mb - 0.00 in0.0 mm 0.00 in0.0 mm
01:20 PM 63.3°F17.4°C 53.4°F11.9°C 70% 9.2 mph N14.8 kmh N 15.0 mph24.1 kmh 30.14 in1020.7 mb - 0.00 in0.0 mm 0.00 in0.0 mm
01:30 PM 63.0°F17.2°C 54.2°F12.3°C 73% 4.6 mph N7.4 kmh N 9.2 mph14.8 kmh 30.14 in1020.7 mb - 0.00 in0.0 mm 0.00 in0.0 mm
01:40 PM 64.5°F18.1°C 54.9°F12.7°C 71% 4.6 mph NW7.4 kmh NW 8.1 mph13.0 kmh 30.14 in1020.7 mb - 0.00 in0.0 mm 0.00 in0.0 mm
01:50 PM 64.5°F18.1°C 54.9°F12.7°C 71% 4.6 mph NW7.4 kmh NW 11.5 mph18.5 kmh 30.13 in1020.3 mb - 0.00 in0.0 mm 0.00 in0.0 mm
02:00 PM 63.6°F17.6°C 54.4°F12.4°C 72% 6.9 mph NW11.1 kmh NW 12.7 mph20.4 kmh 30.13 in1020.3 mb - 0.00 in0.0 mm 0.00 in0.0 mm
02:10 PM 63.5°F17.5°C 54.3°F12.4°C 72% 4.6 mph N7.4 kmh N 15.0 mph24.1 kmh 30.13 in1020.3 mb - 0.00 in0.0 mm 0.00 in0.0 mm
02:20 PM 63.0°F17.2°C 54.6°F12.6°C 74% 4.6 mph WNW7.4 kmh WNW 15.0 mph24.1 kmh 30.13 in1020.3 mb - 0.00 in0.0 mm 0.00 in0.0 mm
02:30 PM 63.2°F17.3°C 54.8°F12.7°C 74% 4.6 mph N7.4 kmh N 9.2 mph14.8 kmh 30.12 in1020.0 mb - 0.00 in0.0 mm 0.00 in0.0 mm
02:40 PM 64.0°F17.8°C 55.2°F12.9°C 73% 3.5 mph W5.6 kmh W 10.4 mph16.7 kmh 30.12 in1020.0 mb - 0.00 in0.0 mm 0.00 in0.0 mm
02:50 PM 65.2°F18.4°C 55.2°F12.9°C 70% 4.6 mph WNW7.4 kmh WNW 9.2 mph14.8 kmh 30.12 in1020.0 mb - 0.00 in0.0 mm 0.00 in0.0 mm
03:00 PM 64.9°F18.3°C 55.2°F12.9°C 71% 4.6 mph NW7.4 kmh NW 5.8 mph9.3 kmh 30.12 in1020.0 mb - 0.00 in0.0 mm 0.00 in0.0 mm
03:10 PM 64.9°F18.3°C 54.9°F12.7°C 70% 2.3 mph NNW3.7 kmh NNW 6.9 mph11.1 kmh 30.12 in1020.0 mb - 0.00 in0.0 mm 0.00 in0.0 mm
03:20 PM 66.0°F18.9°C 52.1°F11.2°C 61% 5.8 mph NW9.3 kmh NW 12.7 mph20.4 kmh 30.12 in1020.0 mb - 0.00 in0.0 mm 0.00 in0.0 mm
03:30 PM 66.0°F18.9°C 51.7°F10.9°C 60% 9.2 mph NW14.8 kmh NW 12.7 mph20.4 kmh 30.12 in1020.0 mb - 0.00 in0.0 mm 0.00 in0.0 mm
03:40 PM 65.8°F18.8°C 52.0°F11.1°C 61% 5.8 mph WNW9.3 kmh WNW 12.7 mph20.4 kmh 30.12 in1020.0 mb - 0.00 in0.0 mm 0.00 in0.0 mm
03:50 PM 65.5°F18.6°C 51.7°F10.9°C 61% 6.9 mph NW11.1 kmh NW 10.4 mph16.7 kmh 30.12 in1020.0 mb - 0.00 in0.0 mm 0.00 in0.0 mm
04:00 PM 65.2°F18.4°C 51.0°F10.6°C 60% 8.1 mph NW13.0 kmh NW 12.7 mph20.4 kmh 30.12 in1020.0 mb - 0.00 in0.0 mm 0.00 in0.0 mm
04:10 PM 65.0°F18.3°C 51.2°F10.7°C 61% 8.1 mph NW13.0 kmh NW 9.2 mph14.8 kmh 30.12 in1020.0 mb - 0.00 in0.0 mm 0.00 in0.0 mm
04:20 PM 64.6°F18.1°C 50.9°F10.5°C 61% 8.1 mph NW13.0 kmh NW 12.7 mph20.4 kmh 30.12 in1020.0 mb - 0.00 in0.0 mm 0.00 in0.0 mm
04:30 PM 64.4°F18.0°C 50.6°F10.3°C 61% 9.2 mph NW14.8 kmh NW 12.7 mph20.4 kmh 30.11 in1019.6 mb - 0.00 in0.0 mm 0.00 in0.0 mm
04:40 PM 63.7°F17.6°C 50.4°F10.2°C 62% 10.4 mph NW16.7 kmh NW 15.0 mph24.1 kmh 30.12 in1020.0 mb - 0.00 in0.0 mm 0.00 in0.0 mm
04:50 PM 63.0°F17.2°C 50.6°F10.3°C 64% 11.5 mph NNW18.5 kmh NNW 17.3 mph27.8 kmh 30.13 in1020.3 mb - 0.00 in0.0 mm 0.00 in0.0 mm
05:00 PM 62.6°F17.0°C 50.7°F10.4°C 65% 12.7 mph NW20.4 kmh NW 17.3 mph27.8 kmh 30.12 in1020.0 mb - 0.00 in0.0 mm 0.00 in0.0 mm
05:10 PM 62.3°F16.8°C 50.8°F10.4°C 66% 11.5 mph NW18.5 kmh NW 17.3 mph27.8 kmh 30.11 in1019.6 mb - 0.00 in0.0 mm 0.00 in0.0 mm
05:20 PM 62.1°F16.7°C 49.8°F9.9°C 64% 13.8 mph NW22.2 kmh NW 16.1 mph25.9 kmh 30.10 in1019.3 mb - 0.00 in0.0 mm 0.00 in0.0 mm
05:30 PM 61.7°F16.5°C 49.9°F9.9°C 65% 13.8 mph WNW22.2 kmh WNW 19.6 mph31.5 kmh 30.10 in1019.3 mb - 0.00 in0.0 mm 0.00 in0.0 mm
05:40 PM 61.4°F16.3°C 49.9°F9.9°C 66% 9.2 mph WNW14.8 kmh WNW 19.6 mph31.5 kmh 30.10 in1019.3 mb - 0.00 in0.0 mm 0.00 in0.0 mm
05:50 PM 61.1°F16.2°C 50.1°F10.1°C 67% 9.2 mph NW14.8 kmh NW 12.7 mph20.4 kmh 30.10 in1019.3 mb - 0.00 in0.0 mm 0.00 in0.0 mm
06:00 PM 60.9°F16.1°C 49.9°F9.9°C 67% 9.2 mph NW14.8 kmh NW 11.5 mph18.5 kmh 30.11 in1019.6 mb - 0.00 in0.0 mm 0.00 in0.0 mm
06:10 PM 60.6°F15.9°C 49.6°F9.8°C 67% 5.8 mph NW9.3 kmh NW 10.4 mph16.7 kmh 30.11 in1019.6 mb - 0.00 in0.0 mm 0.00 in0.0 mm
06:20 PM 60.3°F15.7°C 49.7°F9.8°C 68% 4.6 mph WNW7.4 kmh WNW 9.2 mph14.8 kmh 30.11 in1019.6 mb - 0.00 in0.0 mm 0.00 in0.0 mm
06:30 PM 59.8°F15.4°C 50.0°F10.0°C 70% 5.8 mph WNW9.3 kmh WNW 8.1 mph13.0 kmh 30.11 in1019.6 mb - 0.00 in0.0 mm 0.00 in0.0 mm
06:40 PM 59.5°F15.3°C 49.7°F9.8°C 70% 8.1 mph WNW13.0 kmh WNW 11.5 mph18.5 kmh 30.12 in1020.0 mb - 0.00 in0.0 mm 0.00 in0.0 mm
06:50 PM 59.2°F15.1°C 49.8°F9.9°C 71% 3.5 mph WSW5.6 kmh WSW 8.1 mph13.0 kmh 30.12 in1020.0 mb - 0.00 in0.0 mm 0.00 in0.0 mm
07:00 PM 58.9°F14.9°C 49.9°F9.9°C 72% 1.2 mph NW1.9 kmh NW 9.2 mph14.8 kmh 30.11 in1019.6 mb - 0.00 in0.0 mm 0.00 in0.0 mm
07:10 PM 58.7°F14.8°C 50.1°F10.1°C 73% 4.6 mph NNW7.4 kmh NNW 5.8 mph9.3 kmh 30.12 in1020.0 mb - 0.00 in0.0 mm 0.00 in0.0 mm
07:20 PM 58.5°F14.7°C 50.2°F10.1°C 74% 3.5 mph NW5.6 kmh NW 5.8 mph9.3 kmh 30.12 in1020.0 mb - 0.00 in0.0 mm 0.00 in0.0 mm
07:30 PM 58.2°F14.6°C 50.6°F10.3°C 76% 4.6 mph NNW7.4 kmh NNW 6.9 mph11.1 kmh 30.12 in1020.0 mb - 0.00 in0.0 mm 0.00 in0.0 mm
07:40 PM 57.8°F14.3°C 50.6°F10.3°C 77% 4.6 mph N7.4 kmh N 5.8 mph9.3 kmh 30.12 in1020.0 mb - 0.00 in0.0 mm 0.00 in0.0 mm
07:50 PM 57.2°F14.0°C 50.7°F10.4°C 79% 5.8 mph WNW9.3 kmh WNW 10.4 mph16.7 kmh 30.12 in1020.0 mb - 0.00 in0.0 mm 0.00 in0.0 mm
08:00 PM 56.7°F13.7°C 50.6°F10.3°C 80% 5.8 mph W9.3 kmh W 8.1 mph13.0 kmh 30.12 in1020.0 mb - 0.00 in0.0 mm 0.00 in0.0 mm
08:10 PM 56.3°F13.5°C 50.5°F10.3°C 81% 5.8 mph WNW9.3 kmh WNW 11.5 mph18.5 kmh 30.11 in1019.6 mb - 0.00 in0.0 mm 0.00 in0.0 mm
08:20 PM 56.0°F13.3°C 50.6°F10.3°C 82% 5.8 mph NW9.3 kmh NW 11.5 mph18.5 kmh 30.11 in1019.6 mb - 0.00 in0.0 mm 0.00 in0.0 mm
08:30 PM 55.8°F13.2°C 50.4°F10.2°C 82% 5.8 mph WNW9.3 kmh WNW 10.4 mph16.7 kmh 30.11 in1019.6 mb - 0.00 in0.0 mm 0.00 in0.0 mm
08:40 PM 55.7°F13.2°C 50.3°F10.2°C 82% 4.6 mph NW7.4 kmh NW 9.2 mph14.8 kmh 30.11 in1019.6 mb - 0.00 in0.0 mm 0.00 in0.0 mm
08:50 PM 55.6°F13.1°C 50.6°F10.3°C 83% 3.5 mph WNW5.6 kmh WNW 11.5 mph18.5 kmh 30.11 in1019.6 mb - 0.00 in0.0 mm 0.00 in0.0 mm
09:00 PM 55.6°F13.1°C 50.5°F10.3°C 83% 5.8 mph NNW9.3 kmh NNW 8.1 mph13.0 kmh 30.12 in1020.0 mb - 0.00 in0.0 mm 0.00 in0.0 mm
09:10 PM 55.5°F13.1°C 50.4°F10.2°C 83% 5.8 mph WSW9.3 kmh WSW 13.8 mph22.2 kmh 30.12 in1020.0 mb - 0.00 in0.0 mm 0.00 in0.0 mm
09:20 PM 55.3°F12.9°C 50.2°F10.1°C 83% 4.6 mph W7.4 kmh W 10.4 mph16.7 kmh 30.12 in1020.0 mb - 0.00 in0.0 mm 0.00 in0.0 mm
09:30 PM 55.3°F12.9°C 50.2°F10.1°C 83% 4.6 mph NW7.4 kmh NW 10.4 mph16.7 kmh 30.12 in1020.0 mb - 0.00 in0.0 mm 0.00 in0.0 mm
09:40 PM 55.1°F12.8°C 50.0°F10.0°C 83% 5.8 mph NW9.3 kmh NW 6.9 mph11.1 kmh 30.12 in1020.0 mb - 0.00 in0.0 mm 0.00 in0.0 mm
09:50 PM 55.0°F12.8°C 49.9°F9.9°C 83% 2.3 mph NNW3.7 kmh NNW 4.6 mph7.4 kmh 30.12 in1020.0 mb - 0.00 in0.0 mm 0.00 in0.0 mm
10:00 PM 55.0°F12.8°C 49.9°F9.9°C 83% 4.6 mph NNW7.4 kmh NNW 8.1 mph13.0 kmh 30.12 in1020.0 mb - 0.00 in0.0 mm 0.00 in0.0 mm
10:10 PM 55.0°F12.8°C 50.3°F10.2°C 84% 8.1 mph NNW13.0 kmh NNW 9.2 mph14.8 kmh 30.13 in1020.3 mb - 0.00 in0.0 mm 0.00 in0.0 mm
10:20 PM 55.0°F12.8°C 50.3°F10.2°C 84% 6.9 mph NW11.1 kmh NW 9.2 mph14.8 kmh 30.12 in1020.0 mb - 0.00 in0.0 mm 0.00 in0.0 mm
10:30 PM 54.9°F12.7°C 50.5°F10.3°C 85% 3.5 mph W5.6 kmh W 10.4 mph16.7 kmh 30.12 in1020.0 mb - 0.00 in0.0 mm 0.00 in0.0 mm
10:40 PM 54.8°F12.7°C 50.1°F10.1°C 84% 4.6 mph WNW7.4 kmh WNW 10.4 mph16.7 kmh 30.12 in1020.0 mb - 0.00 in0.0 mm 0.00 in0.0 mm
10:50 PM 54.8°F12.7°C 50.0°F10.0°C 84% 8.1 mph WNW13.0 kmh WNW 12.7 mph20.4 kmh 30.12 in1020.0 mb - 0.00 in0.0 mm 0.00 in0.0 mm
11:00 PM 54.6°F12.6°C 49.5°F9.7°C 83% 6.9 mph W11.1 kmh W 11.5 mph18.5 kmh 30.11 in1019.6 mb - 0.00 in0.0 mm 0.00 in0.0 mm
11:10 PM 54.4°F12.4°C 49.7°F9.8°C 84% 5.8 mph WNW9.3 kmh WNW 8.1 mph13.0 kmh 30.11 in1019.6 mb - 0.00 in0.0 mm 0.00 in0.0 mm
11:20 PM 54.4°F12.4°C 49.7°F9.8°C 84% 9.2 mph WNW14.8 kmh WNW 13.8 mph22.2 kmh 30.11 in1019.6 mb - 0.00 in0.0 mm 0.00 in0.0 mm
11:30 PM 54.4°F12.4°C 49.3°F9.6°C 83% 6.9 mph W11.1 kmh W 15.0 mph24.1 kmh 30.11 in1019.6 mb - 0.00 in0.0 mm 0.00 in0.0 mm
11:40 PM 54.3°F12.4°C 49.2°F9.6°C 83% 6.9 mph W11.1 kmh W 18.4 mph29.6 kmh 30.11 in1019.6 mb - 0.00 in0.0 mm 0.00 in0.0 mm
11:50 PM 54.3°F12.4°C 48.9°F9.4°C 82% 4.6 mph W7.4 kmh W 10.4 mph16.7 kmh 30.11 in1019.6 mb - 0.00 in0.0 mm 0.00 in0.0 mm